Tiempo atmosférico en la estación meteorológica de Medina De Pomar, Burgos (580 m.)



Fecha
DESCASC
Temp. máxima en grados centígrados (hora)
DESCASC
Temp. mínima en grados centígrados (hora)
DESCASC
Temp. media en grados centígrados
DESCASC
Racha de viento máxima en m/sg (hora)
DESCASC
Velocidad máxima media en intervalos de 10 minutos(hora)
DESCASC
Precipitaciones diarias en mm
DESCASC
Precipitaciones de 00:00 a 06:00 en mm
DESCASC
Precipitaciones de 06:00 a 12:00 en mm
DESCASC
Precipitaciones de 12:00 a 18:00 en mm
DESCASC
Precipitaciones de 18:00 a 24:00 en mm
DESCASC
25-04-2019 14.7 (17:30) 6.4 (07:40) 10.5 16.67 (14:20) 8.33 (20:10) 0.6 0.2 0 0 0.4
24-04-2019 13.5 (17:00) 5.4 (02:20) 9.5 18.06 (20:10) 7.22 (13:40) 4.6 0 0.4 1.6 2.6
23-04-2019 14.2 (20:00) 8.2 (23:20) 11.2 13.61 (20:20) 5 (20:20) 0.8 0 0.6 0.2 0
22-04-2019 18.7 (18:50) 7.8 (00:00) 13.3 11.67 (15:20) 4.72 (16:00) 0 0 0 0 0
21-04-2019 14.9 (13:00) 2.5 (00:00) 8.7 8.33 (16:00) 4.44 (13:30) 0.4 0 0 0 0.4
20-04-2019 20.5 (15:20) 4 (00:00) 12.3 15 (18:40) 6.39 (19:20) 0 0 0 0 0
19-04-2019 18.5 (18:00) 9.6 (00:00) 14.1 11.67 (00:20) 5.83 (00:30) 3.2 1.6 1.6 0 0
18-04-2019 14.1 (05:10) 10.2 (00:00) 12.2 11.67 (05:00) 4.72 (04:30) 18.8 1 2.6 3.4 11.8
17-04-2019 20.7 (17:40) 9.7 (00:00) 15.2 15 (09:50) 7.22 (09:50) 1 0 0 0 1
16-04-2019 19.8 (17:20) 5.3 (00:00) 12.5 7.78 (15:40) 4.17 (15:00) 0.2 0.2 0 0 0
15-04-2019 23.9 (14:50) 7.5 (00:00) 15.7 16.67 (16:00) 6.67 (16:00) 1.4 0 0 1 0.4
14-04-2019 22.1 (15:50) 7.2 (00:00) 14.7 7.22 (21:10) 3.61 (21:10) 0 0 0 0 0
13-04-2019 22.7 (18:30) -2.8 (-00:0) 10 7.5 (19:40) 4.17 (19:40) 0 0 0 0 0
12-04-2019 16.1 (17:40) 0 (00:00) 8.1 5.83 (13:50) 2.78 (18:10) 0 0 0 0 0
11-04-2019 10.7 (14:50) 4 (00:00) 7.3 10 (17:00) 3.89 (12:50) 1.4 0.2 0.2 0 1
10-04-2019 14.2 (14:20) 4.6 (00:00) 9.4 8.06 (15:10) 4.17 (15:10) 2 0 0 2 0
09-04-2019 14.9 (14:50) 0.5 (00:00) 7.7 10.83 (13:50) 4.44 (15:00) 13.4 0 0 8.4 5
08-04-2019 14.5 (16:30) 4.2 (00:00) 9.3 10.56 (18:10) 5.83 (18:10) 1 0.2 0.8 0 0
07-04-2019 15.1 (15:40) 3.8 (00:00) 9.5 11.11 (21:10) 4.44 (21:40) 1.6 1.4 0.2 0 0
06-04-2019 13.7 (16:20) 1.1 (00:00) 7.4 11.67 (14:50) 5.56 (14:00) 2 0 0 0 2
05-04-2019 12.9 (14:40) 3.8 (00:00) 8.3 11.67 (14:00) 4.72 (06:10) 0 0 0 0 0
04-04-2019 13.5 (15:40) -0.4 (00:00) 6.5 13.33 (19:50) 5.83 (15:00) 0.4 0.4 0 0 0
03-04-2019 9.4 (13:40) 1.6 (00:00) 5.5 16.94 (15:10) 6.39 (13:50) 0.4 0 0 0 0.4
02-04-2019 17.9 (15:30) 0.1 (00:00) 9 10.28 (17:50) 5.28 (17:00) 0 0 0 0 0
01-04-2019 15.4 (13:10) 5.1 (00:00) 10.2 5.83 (13:20) 2.78 (14:30) 0 0 0 0 0
31-03-2019 20.3 (16:30) -0.8 (-00:0) 9.7 9.72 (19:30) 5.28 (19:20) 0 0 0 0 0
30-03-2019 20.6 (15:50) 0.8 (00:00) 10.7 7.5 (15:40) 3.61 (16:10) 0 0 0 0 0
29-03-2019 21 (16:50) -3 (-00:0) 9 10.56 (13:50) 5 (13:50) 0 0 0 0 0
28-03-2019 16.3 (15:40) -2 (-00:0) 7.1 8.33 (17:40) 3.89 (16:50) 0 0 0 0 0
27-03-2019 15.7 (15:20) -2.2 (-00:0) 6.7 11.39 (20:00) 5.83 (19:20) 0 0 0 0 0

Gráficas

Temp. máximas Temp. mínimas Temp. medias Precipitaciones Rachas de viento máximas Velocidades máximas media en intervalos de 10 minutos

Datos horarios

Fecha y hora oficial Temperatura (ºC) Velocidad del viento (km/h) Dirección del viento Racha (km/h) Dirección de racha Precipitación (mm) Presión (hPa) Tendencia (hPa) Humedad (%)
2019-04-25 23:00:00 8.3 9 Sudoeste 24 Sudeste 0 945.6 3.6 67
2019-04-25 22:00:00 7.9 9 Sudoeste 31 Sudoeste 0 944.2 3 70
2019-04-25 21:00:00 8.4 10 Sudoeste 57 Oeste 0.4 943.5 2.8 71
2019-04-25 20:00:00 11.7 18 Sudoeste 53 Sudoeste 0 942 1.2 51
2019-04-25 19:00:00 12.4 19 Sudoeste 50 Sur 0 941.2 -0.2 48
2019-04-25 18:00:00 13.6 20 Sudoeste 58 Sudoeste 0 940.7 0.2 45
2019-04-25 17:00:00 14.1 21 Sudoeste 50 Sur 0 940.8 0.5 44
2019-04-25 16:00:00 12.3 17 Sudoeste 51 Sudoeste 0 941.4 0.9 53
2019-04-25 15:00:00 13.4 13 Sudoeste 60 Sudoeste 0 940.5 0.1 40
2019-04-25 14:00:00 13.1 19 Sudoeste 46 Sudoeste 0 940.3 0.9 45
2019-04-25 13:00:00 10.9 20 Sudoeste 51 Sudoeste 0 940.5 1.6 52
2019-04-25 12:00:00 9.2 15 Sudoeste 44 Sudoeste 0 940.4 2.1 57
2019-04-25 11:00:00 8.7 16 Sudoeste 41 Sudoeste 0 939.4 2.2 58
2019-04-25 10:00:00 8.2 11 Sudoeste 35 Sudoeste 0 938.9 2.4 61
2019-04-25 09:00:00 7 9 Sudoeste 40 Sudoeste 0 938.3 2.2 67
2019-04-25 08:00:00 6.6 12 Sudoeste 40 Sudoeste 0 937.2 1.5 67
2019-04-25 07:00:00 7 14 Sudoeste 33 Sudoeste 0 936.5 1.1 64
2019-04-25 06:00:00 7 13 Sudoeste 34 Sudoeste 0 936.1 0.9 69
2019-04-25 05:00:00 7.4 9 Sudoeste 35 Sudoeste 0.2 935.7 0.9 70
2019-04-25 04:00:00 6.8 4 Oeste 22 Sudoeste 0 935.4 1.2 75
2019-04-25 03:00:00 7.7 7 Sudoeste 25 Sudoeste 0 935.2 1.1 72
2019-04-25 02:00:00 8.7 11 Oeste 33 Sur 0 934.8 1.3 74
2019-04-25 01:00:00 8.4 13 Sudoeste 41 Sudoeste 0 934.2 1 73
2019-04-25 00:00:00 8.6 16 Sudoeste 59 Sudoeste 0.8 934.1 1.7 74
2019-04-24 23:00:00 10 16 Sudoeste 52 Sudoeste 0 933.5 2.4 69
2019-04-24 22:00:00 10.4 19 Sudoeste 59 Sur 0 933.2 1.1 64
2019-04-24 21:00:00 10.7 15 Sudoeste 65 Sur 0 932.4 1.9 69
2019-04-24 20:00:00 11.2 22 Sudoeste 50 Sudoeste 0.6 931.1 0.6 65
2019-04-24 19:00:00 10 8 Sudoeste 41 Oeste 1.2 932.1 1.6 80
2019-04-24 18:00:00 13.1 15 Sudoeste 56 Sudoeste 0 930.5 0 65
2019-04-24 17:00:00 13.4 18 Sur 64 Sudoeste 0.6 930.5 -0.5 64
2019-04-24 16:00:00 11.2 13 Sur 61 Sudoeste 1 930.5 -1.4 77
2019-04-24 15:00:00 13.3 19 Sur 55 Sur 0 930.5 -1.4 61
2019-04-24 14:00:00 10.5 21 Sur 58 Sudeste 0 931 -1.5 69
2019-04-24 13:00:00 9.9 21 Sur 60 Sur 0 931.9 -1 69
2019-04-24 12:00:00 8.5 18 Sur 49 Sudeste 0.2 931.9 -1.1 72
2019-04-24 11:00:00 6.6 14 Sur 50 Sur 0.2 932.5 -0.2 75
2019-04-24 10:00:00 7.1 14 Sur 44 Oeste 0 932.9 -0.4 61
2019-04-24 09:00:00 6.7 8 Sudoeste 51 Sur 0 933 -0.5 64
2019-04-24 08:00:00 6.5 8 Sudoeste 42 Sudoeste 0 932.7 -1 64
2019-04-24 07:00:00 6.2 11 Sudoeste 32 Sudoeste 0 933.3 -0.4 66
2019-04-24 06:00:00 6.1 9 Sudoeste 36 Sudoeste 0 933.5 0 67
2019-04-24 05:00:00 6.5 13 Sudoeste 35 Sudoeste 0 933.7 0.2 66
2019-04-24 04:00:00 6.7 6 Sudeste 29 Sudoeste 0 933.7 0.4 68
2019-04-24 03:00:00 6.1 8 Sudoeste 17 Sudoeste 0 933.5 0.8 79
2019-04-24 02:00:00 5.7 3 Sur 8 Norte 0 933.5 1.4 78
2019-04-24 01:00:00 7.5 2 Oeste 10 Noroeste 0 933.3 2 73
2019-04-24 00:00:00 8.2 3 Norte 10 Oeste 0 932.7 2.6 74
2019-04-23 23:00:00 8.3 5 Oeste 17 Sudoeste 0 932.1 3.3 71
2019-04-23 22:00:00 9.2 5 Sudoeste 30 Sudoeste 0 931.3 2.5 62
2019-04-23 21:00:00 9.3 12 Sudoeste 49 Sudoeste 0 930.1 1.2 63
2019-04-23 20:00:00 14.1 9 Sur 28 Sudoeste 0 928.8 -0.1 45
2019-04-23 19:00:00 13.2 5 Sudeste 26 Sudoeste 0 928.8 -0.5 43
2019-04-23 18:00:00 12.4 10 Sudoeste 30 Oeste 0 928.9 -0.6 48
2019-04-23 17:00:00 12.4 12 Sudoeste 29 Sudoeste 0 928.9 -1.1 53
2019-04-23 16:00:00 11.4 12 Sur 26 Sur 0 929.3 -0.1 57
2019-04-23 15:00:00 11 3 Sudeste 21 Sudoeste 0.2 929.5 0.1 65
2019-04-23 14:00:00 10.4 8 Sudoeste 28 Sudoeste 0 930 1.2 64
2019-04-23 13:00:00 10.7 7 Sudoeste 23 Oeste 0 929.4 0.7 65
2019-04-23 12:00:00 10.9 8 Sudoeste 23 Oeste 0 929.4 1.4 68
2019-04-23 11:00:00 10.5 4 Noroeste 18 Sudoeste 0.2 928.8 0.9 73
2019-04-23 10:00:00 10.7 10 Sudoeste 29 Sudoeste 0.4 928.7 0.7 77
2019-04-23 09:00:00 11.5 9 Sudeste 22 Este 0 928 -0.4 75
2019-04-23 08:00:00 11.3 9 Sudeste 27 Sudeste 0 927.9 -0.8 74
2019-04-23 07:00:00 11.5 10 Sudeste 29 Sudeste 0 928 -0.6 70
2019-04-23 06:00:00 11.9 5 Sur 22 Sudoeste 0 928.4 -0.6 69
2019-04-23 05:00:00 12.4 8 Sudoeste 26 Sur 0 928.7 -1 65
2019-04-23 04:00:00 12.3 11 Sudeste 28 Sudeste 0 928.6 -1.2 65
2019-04-23 03:00:00 12.2 5 Sudeste 23 Sudeste 0 929 -1.1 66
2019-04-23 02:00:00 10.9 3 Este 12 Nordeste 0 929.7 -0.7 71
2019-04-23 01:00:00 11.9 4 Sudoeste 17 Sudeste 0 929.8 -0.9 64
2019-04-23 00:00:00 12.8 10 Sudeste 20 Sudeste 0 930.1 -0.6 57
2019-04-22 23:00:00 13 9 Sudeste 23 Este 0 930.4 -0.7 57
2019-04-22 22:00:00 13 3 Sudeste 15 Sur 0 930.7 -0.8 56
2019-04-22 21:00:00 15.1 8 Sur 29 Sudoeste 0 930.7 -1.1 49
2019-04-22 20:00:00 16.4 12 Sur 27 Sudeste 0 931.1 -1.1 43
2019-04-22 19:00:00 18 10 Sur 25 Sur 0 931.5 -1.4 37
2019-04-22 18:00:00 18.4 7 Sur 32 Oeste 0 931.8 -1.7 39
2019-04-22 17:00:00 16.6 16 Oeste 36 Sudoeste 0 932.2 -2.2 48
2019-04-22 16:00:00 17.1 17 Sudoeste 42 Sudoeste 0 932.9 -2.5 45
2019-04-22 15:00:00 17.7 5 Oeste 24 Sudoeste 0 933.5 -3 44
2019-04-22 14:00:00 16.7 5 Oeste 23 Oeste 0 934.4 -2.6 47
2019-04-22 13:00:00 16.2 6 Sudeste 16 Sudeste 0 935.4 -2.3 54
2019-04-22 12:00:00 14 5 Sudeste 12 Sudeste 0 936.5 -1.5 62
2019-04-22 11:00:00 11.8 3 Oeste 9 Sur 0 937 -1.2 73
2019-04-22 10:00:00 10.5 5 Sudeste 10 Sudeste 0 937.7 -0.7 83
2019-04-22 09:00:00 8.8 4 Sur 10 Sudeste 0 938 -1.2 90
2019-04-22 08:00:00 7.9 3 Sudeste 4 Sudeste 0 938.2 -2.1 90
2019-04-22 07:00:00 8 0 Calma 3 Este 0 938.4 -2.5 89
2019-04-22 06:00:00 8.2 2 Sur 3 Este 0 939.2 -2.7 88
2019-04-22 05:00:00 8.4 3 Este 5 Este 0 940.3 -2.6 89
2019-04-22 04:00:00 8.5 0 Calma 4 Noroeste 0 940.9 -2.8 88
2019-04-22 03:00:00 8.7 0 Calma 5 Nordeste 0 941.9 -2.3 88
2019-04-22 02:00:00 8.9 4 Oeste 14 Sudeste 0 942.9 -1.6 88
2019-04-22 01:00:00 9.3 2 Sudeste 13 Noroeste 0 943.7 -1 86
2019-04-22 00:00:00 9.6 3 Noroeste 8 Noroeste 0 944.2 -0.4 84
2019-04-21 23:00:00 10.1 3 Noroeste 11 Nordeste 0 944.5 -0.1 81
2019-04-21 22:00:00 10.3 3 Sudoeste 13 Norte 0 944.7 0.1 80
2019-04-21 21:00:00 10.5 5 Norte 21 Nordeste 0.2 944.6 -0.3 84
2019-04-21 20:00:00 11.2 12 Nordeste 22 Este 0 944.6 -0.6 80
2019-04-21 19:00:00 11.8 8 Norte 19 Nordeste 0.2 944.6 -1.4 75
2019-04-21 18:00:00 13.3 6 Nordeste 19 Nordeste 0 944.9 -1.8 64
2019-04-21 17:00:00 14.3 10 Nordeste 23 Norte 0 945.2 -1.9 58
2019-04-21 16:00:00 13.7 11 Norte 30 Norte 0 946 -1.7 59
2019-04-21 15:00:00 13.5 9 Nordeste 24 Nordeste 0 946.7 -1.6 59
2019-04-21 14:00:00 14.1 13 Nordeste 27 Nordeste 0 947.1 -1.9 54
2019-04-21 13:00:00 14.9 4 Nordeste 15 Noroeste 0 947.7 -2 52
2019-04-21 12:00:00 11.7 4 Sudoeste 8 Sudoeste 0 948.3 -1.8 61
2019-04-21 11:00:00 8.8 2 Oeste 8 Oeste 0 949 -0.7 74
2019-04-21 10:00:00 7.9 3 Este 6 Este 0 949.7 0.2 77
2019-04-21 09:00:00 4.7 3 Nordeste 6 Nordeste 0 950.1 0.4 87
2019-04-21 08:00:00 2.5 0 Calma 6 Sur 0 949.7 -0.7 89
2019-04-21 07:00:00 2.9 3 Nordeste 7 Nordeste 0 949.5 -1.5 87
2019-04-21 06:00:00 3.6 2 Nordeste 6 Norte 0 949.7 -1.8 87
2019-04-21 05:00:00 4.5 2 Nordeste 6 Este 0 950.4 -1.8 86
2019-04-21 04:00:00 5.2 2 Sur 13 Norte 0 951 -1.8 84
2019-04-21 03:00:00 5.9 3 Noroeste 8 Norte 0 951.5 -1.4 80
2019-04-21 02:00:00 6.7 0 Calma 7 Norte 0 952.2 -0.8 78
2019-04-21 01:00:00 7.9 3 Norte 6 Sudeste 0 952.8 0 75
2019-04-21 00:00:00 8.6 4 Sudeste 17 Sudeste 0 952.9 0.6 75
2019-04-20 23:00:00 9.8 3 Oeste 8 Sudoeste 0 953 0.7 68
2019-04-20 22:00:00 12 3 Este 21 Norte 0 952.8 0.8 58
2019-04-20 21:00:00 13.7 9 Norte 27 Nordeste 0 952.3 0.6 50
2019-04-20 20:00:00 15.3 17 Nordeste 43 Nordeste 0 952.3 0.4 46
2019-04-20 19:00:00 16.5 22 Nordeste 54 Norte 0 952 -0.5 44
2019-04-20 18:00:00 18.1 20 Nordeste 46 Nordeste 0 951.7 -1.5 39
2019-04-20 17:00:00 19.4 19 Nordeste 44 Norte 0 951.9 -1.9 29
2019-04-20 16:00:00 19.7 18 Norte 43 Nordeste 0 952.5 -1.9 30
2019-04-20 15:00:00 19.9 17 Nordeste 37 Norte 0 953.2 -1.6 28
2019-04-20 14:00:00 19.6 17 Nordeste 34 Nordeste 0 953.8 -1.4 32
2019-04-20 13:00:00 18.6 19 Nordeste 39 Nordeste 0 954.4 -1.4 34
2019-04-20 12:00:00 17.9 15 Nordeste 33 Nordeste 0 954.8 -1 37
2019-04-20 11:00:00 14.8 4 Noroeste 8 Noroeste 0 955.2 -0.6 68
2019-04-20 10:00:00 10.3 3 Sudoeste 7 Sudoeste 0 955.8 0.2 79
2019-04-20 09:00:00 6 3 Norte 8 Nordeste 0 955.8 0 91
2019-04-20 08:00:00 4.3 2 Norte 4 Norte 0 955.8 -0.5 91
2019-04-20 07:00:00 4.3 2 Este 7 Norte 0 955.6 -0.8 91
2019-04-20 06:00:00 4.8 3 Nordeste 5 Norte 0 955.8 -0.7 90
2019-04-20 05:00:00 5.5 2 Nordeste 7 Norte 0 956.3 0 89
2019-04-20 04:00:00 6.4 0 Calma 9 Norte 0 956.4 -0.4 88
2019-04-20 03:00:00 7 4 Nordeste 8 Nordeste 0 956.5 -0.3 88
2019-04-20 02:00:00 7.8 0 Calma 9 Nordeste 0 956.3 -0.4 86
2019-04-20 01:00:00 8.8 2 Norte 12 Oeste 0 956.8 0.8 81
2019-04-20 00:00:00 10.4 4 Oeste 10 Oeste 0 956.8 1.7 76
2019-04-19 23:00:00 10.9 4 Oeste 9 Oeste 0 956.7 2.6 78
2019-04-19 22:00:00 13.4 3 Sur 21 Nordeste 0 956 2.3 68
2019-04-19 21:00:00 14.4 12 Nordeste 18 Nordeste 0 955.1 1.6 66
2019-04-19 20:00:00 16 11 Nordeste 23 Nordeste 0 954.1 0.7 62
2019-04-19 19:00:00 17.2 9 Nordeste 28 Nordeste 0 953.7 0.4 56
2019-04-19 18:00:00 18.5 9 Nordeste 29 Este 0 953.5 0.4 49
2019-04-19 17:00:00 17.5 8 Este 29 Este 0 953.4 0.4 50
2019-04-19 16:00:00 17.5 15 Sudeste 30 Sudeste 0 953.3 -0.3 45
2019-04-19 15:00:00 16.8 17 Sudeste 36 Este 0 953.1 -0.3 49
2019-04-19 14:00:00 17 14 Este 29 Este 0 953 0.3 54
2019-04-19 13:00:00 14.1 9 Sudeste 30 Sudeste 0 953.6 1.3 67
2019-04-19 12:00:00 11.4 9 Sudeste 19 Sudeste 0 953.4 1.8 78
2019-04-19 11:00:00 10.4 9 Sudeste 21 Sudeste 0.6 952.7 1.8 82
2019-04-19 10:00:00 9.7 3 Este 9 Sudeste 0.4 952.3 2.2 87
2019-04-19 09:00:00 9.9 3 Oeste 23 Este 0.2 951.6 2.3 84
2019-04-19 08:00:00 10.3 12 Sudeste 28 Sudeste 0.4 950.9 1.6 79
2019-04-19 07:00:00 10.1 9 Este 24 Sudeste 0 950.1 1.4 80
2019-04-19 06:00:00 10.4 11 Sudeste 27 Este 0 949.3 0.2 79
2019-04-19 05:00:00 10.6 13 Este 29 Este 0 949.3 0.2 79
2019-04-19 04:00:00 10.4 10 Este 23 Este 0 948.7 -0.1 82
2019-04-19 03:00:00 10.2 8 Nordeste 22 Este 0.4 949.1 0.6 87
2019-04-19 02:00:00 10.2 6 Este 41 Este 0.8 949.1 0.5 86
2019-04-19 01:00:00 10.6 18 Nordeste 42 Nordeste 0.4 948.8 0.2 82
2019-04-19 00:00:00 10.6 17 Nordeste 35 Nordeste 0.4 948.5 0.4 83
2019-04-18 23:00:00 10.2 8 Nordeste 14 Nordeste 0.8 948.6 0.7 91
2019-04-18 22:00:00 10.4 4 Norte 10 Noroeste 2 948.6 1.4 91
2019-04-18 21:00:00 10.7 3 Norte 7 Este 2 948.1 1.4 91
2019-04-18 20:00:00 10.9 3 Norte 13 Sudeste 4.8 947.9 1.2 91
2019-04-18 19:00:00 11.1 0 Calma 10 Oeste 1.8 947.2 0.1 89
2019-04-18 18:00:00 11.6 4 Oeste 8 Noroeste 1 946.7 -0.8 86
2019-04-18 17:00:00 12.2 3 Noroeste 9 Noroeste 0 946.7 -1.1 79
2019-04-18 16:00:00 11.9 5 Norte 11 Noroeste 0 947.1 -0.8 80
2019-04-18 15:00:00 11.2 3 Nordeste 6 Nordeste 0.2 947.5 -0.6 85
2019-04-18 14:00:00 11.1 0 Calma 13 Sudeste 1.8 947.8 -0.1 85
2019-04-18 13:00:00 11 8 Sudeste 19 Sudeste 0.4 947.9 0.1 84
2019-04-18 12:00:00 10.8 8 Sudeste 16 Sur 0.8 948.1 1 87
2019-04-18 11:00:00 10.5 9 Sudeste 18 Sudeste 0.4 947.9 1 87
2019-04-18 10:00:00 10.4 9 Sudeste 22 Sudeste 1 947.8 1.7 87
2019-04-18 09:00:00 10.6 10 Sudeste 26 Sudeste 0.2 947.1 1.4 84
2019-04-18 08:00:00 10.6 11 Sudeste 24 Sudeste 0.2 946.9 2.1 84
2019-04-18 07:00:00 11.2 14 Sudeste 27 Sudeste 0 946.1 2.2 82
2019-04-18 06:00:00 12.1 8 Sudoeste 22 Sur 0.4 945.7 1.4 75
2019-04-18 05:00:00 14 15 Sur 42 Sur 0 944.8 0.4 67
2019-04-18 04:00:00 13 15 Sudeste 26 Sudeste 0 943.9 -0.9 75
2019-04-18 03:00:00 12.1 4 Sudoeste 19 Sudeste 0 944.3 -1.2 82
2019-04-18 02:00:00 12.4 12 Sur 25 Sur 0 944.4 -0.7 82
2019-04-18 01:00:00 13.4 13 Sudeste 33 Sudeste 0.6 944.8 -0.3 78
2019-04-18 00:00:00 13.6 8 Sur 29 Este 0.2 945.5 2.7 79
2019-04-17 23:00:00 13.8 12 Sudeste 30 Sudeste 0.6 945.1 3 80
2019-04-17 22:00:00 16.3 10 Sur 29 Sur 0.2 945.1 3.1 62
2019-04-17 21:00:00 16.4 11 Sudeste 28 Sudeste 0 942.8 1 57
2019-04-17 20:00:00 17.5 11 Sudeste 22 Sudeste 0 942.1 -0.2 55
2019-04-17 19:00:00 18.3 12 Sudeste 35 Sudeste 0 942 -1.3 55
2019-04-17 18:00:00 19.4 19 Sudeste 39 Sudeste 0 941.8 -2.1 46
2019-04-17 17:00:00 20.3 20 Sudeste 37 Sudeste 0 942.3 -2.2 43
2019-04-17 16:00:00 18.6 21 Sudeste 37 Sur 0 943.3 -1.3 48
2019-04-17 15:00:00 18.8 8 Sur 26 Sudeste 0 943.9 -1 50
2019-04-17 14:00:00 16.7 14 Sur 33 Sudeste 0 944.5 -0.6 55
2019-04-17 13:00:00 14.8 20 Sudeste 42 Sudeste 0 944.6 0 59
2019-04-17 12:00:00 12.3 21 Sudeste 37 Sudeste 0 944.9 0.3 69
2019-04-17 11:00:00 11.1 22 Sudeste 46 Sur 0 945.1 0.1 71
2019-04-17 10:00:00 10.7 23 Sur 54 Sur 0 944.6 -0.3 71
2019-04-17 09:00:00 10.5 18 Sur 40 Sudoeste 0 944.6 -0.2 69
2019-04-17 08:00:00 9.8 8 Oeste 19 Oeste 0 945 0 73
2019-04-17 07:00:00 9.9 4 Norte 11 Norte 0 944.9 -0.5 76
2019-04-17 06:00:00 11.1 3 Nordeste 13 Sudeste 0 944.8 -1.9 70
2019-04-17 05:00:00 11.8 5 Sudoeste 25 Sudeste 0 945 -2.2 65
2019-04-17 04:00:00 11.1 4 Este 13 Sur 0 945.4 -1.9 69
2019-04-17 03:00:00 9.8 3 Oeste 6 Sudeste 0 946.7 -1 81
2019-04-17 02:00:00 10.9 2 Este 10 Sudeste 0 947.2 -0.8 74
2019-04-17 01:00:00 11.3 3 Nordeste 8 Nordeste 0 947.3 -0.6 74
2019-04-17 00:00:00 12.1 3 Norte 10 Este 0 947.7 -0.1 71
2019-04-16 23:00:00 13.3 3 Sudeste 19 Sudeste 0 948 0.3 66
2019-04-16 22:00:00 15.1 12 Sudeste 24 Sudeste 0 947.9 0.1 56
2019-04-16 21:00:00 15.7 8 Sudeste 23 Este 0 947.8 -0.2 57
2019-04-16 20:00:00 17.6 11 Sudeste 26 Sudeste 0 947.7 -0.9 51
2019-04-16 19:00:00 19.4 12 Sudeste 24 Sudeste 0 947.8 -1.6 39
2019-04-16 18:00:00 19.6 13 Sudeste 27 Sudeste 0 948 -2.2 37
2019-04-16 17:00:00 19.4 14 Sudeste 27 Sudeste 0 948.6 -2.1 36
2019-04-16 16:00:00 18.5 14 Sudeste 28 Sudeste 0 949.4 -2.1 43
2019-04-16 15:00:00 18.1 15 Sudeste 27 Sudeste 0 950.2 -1.8 44
2019-04-16 14:00:00 16.9 10 Sudeste 22 Sur 0 950.7 -1.7 47
2019-04-16 13:00:00 15.1 8 Sudeste 19 Este 0 951.5 -1 54
2019-04-16 12:00:00 13.3 6 Sudeste 14 Este 0 952 -0.7 65
2019-04-16 11:00:00 11.3 3 Sur 9 Sur 0 952.4 0.3 75
2019-04-16 10:00:00 8.4 3 Sudoeste 6 Sudoeste 0 952.5 0.8 85
2019-04-16 09:00:00 7 0 Calma 5 Nordeste 0 952.7 1.5 89
2019-04-16 08:00:00 5.5 0 Calma 14 Sudeste 0 952.1 0.7 91
2019-04-16 07:00:00 5.7 0 Calma 6 Nordeste 0 951.7 0.5 90
2019-04-16 06:00:00 6.8 2 Norte 4 Norte 0 951.2 0.2 89
2019-04-16 05:00:00 7.2 0 Calma 6 Nordeste 0 951.4 0.4 88
2019-04-16 04:00:00 6.9 3 Nordeste 5 Nordeste 0 951.2 0.3 88
2019-04-16 03:00:00 7 0 Calma 6 Sudoeste 0 951 0.6 86
2019-04-16 02:00:00 8.3 0 Calma 9 Sudoeste 0 951 1.4 81
2019-04-16 01:00:00 9.6 3 Sudoeste 12 Este 0.2 950.9 2.6 81
2019-04-16 00:00:00 10.4 2 Norte 8 Nordeste 0.2 950.4 3.3 82
2019-04-15 23:00:00 10.8 2 Oeste 8 Nordeste 0 949.6 3.4 81
2019-04-15 22:00:00 11 5 Nordeste 14 Nordeste 0.2 948.3 3.1 80
2019-04-15 21:00:00 11.3 7 Nordeste 17 Nordeste 0 947.1 3.5 78
2019-04-15 20:00:00 11.8 8 Norte 33 Norte 0 946.2 3.5 74
2019-04-15 19:00:00 12.4 13 Norte 29 Norte 0 945.2 2.5 73
2019-04-15 18:00:00 15.4 8 Noroeste 23 Noroeste 0 943.6 2.7 80
2019-04-15 17:00:00 14.8 3 Sudoeste 35 Oeste 1 942.7 0.7 78
2019-04-15 16:00:00 18.6 24 Sudoeste 60 Sudoeste 0 942.7 -0.3 54
2019-04-15 15:00:00 22.4 20 Sudeste 42 Sudeste 0 940.9 -2.5 44
2019-04-15 14:00:00 22.4 18 Sudeste 44 Sur 0 942 -2.1 46
2019-04-15 13:00:00 20.5 13 Sur 33 Sur 0 943 -1.6 51
2019-04-15 12:00:00 18.2 13 Sudeste 28 Sudeste 0 943.4 -1.7 63
2019-04-15 11:00:00 15.6 10 Sur 21 Sudeste 0 944.1 -1.5 70
2019-04-15 10:00:00 11.5 3 Sudeste 8 Sur 0 944.6 -1.1 86
2019-04-15 09:00:00 9.5 3 Nordeste 7 Norte 0 945.1 -0.9 90
2019-04-15 08:00:00 8.8 0 Calma 8 Nordeste 0 945.6 -1.3 90
2019-04-15 07:00:00 8.1 3 Norte 7 Este 0 945.7 -1.5 90
2019-04-15 06:00:00 8.1 2 Sudeste 6 Oeste 0 946 -1.8 90
2019-04-15 05:00:00 7.8 3 Oeste 7 Nordeste 0 946.9 -1.5 90
2019-04-15 04:00:00 7.9 2 Nordeste 7 Nordeste 0 947.2 -1.7 89
2019-04-15 03:00:00 8.5 0 Calma 6 Este 0 947.8 -1.3 88
2019-04-15 02:00:00 9.2 3 Nordeste 7 Nordeste 0 948.4 -0.9 87
2019-04-15 01:00:00 10.4 0 Calma 6 Nordeste 0 948.9 -0.1 85
2019-04-15 00:00:00 11.6 0 Calma 6 Sudeste 0 949.1 0.8 82
2019-04-14 23:00:00 13.1 2 Sur 6 Sudeste 0 949.3 1.3 76
2019-04-14 22:00:00 15.3 5 Nordeste 26 Nordeste 0 949 0.8 67
2019-04-14 21:00:00 16.8 12 Nordeste 24 Nordeste 0 948.3 -0.2 61
2019-04-14 20:00:00 19.2 9 Nordeste 20 Nordeste 0 948 -1.1 54
2019-04-14 19:00:00 21.2 2 Este 18 Este 0 948.2 -1.4 43
2019-04-14 18:00:00 21.6 4 Nordeste 22 Nordeste 0 948.5 -1.1 44
2019-04-14 17:00:00 20.7 9 Nordeste 21 Norte 0 949.1 -0.6 49
2019-04-14 16:00:00 21.3 6 Oeste 20 Oeste 0 949.6 -0.2 42
2019-04-14 15:00:00 20.3 7 Oeste 21 Noroeste 0 949.6 -0.5 46
2019-04-14 14:00:00 21.2 4 Sudoeste 15 Noroeste 0 949.7 -0.7 40
2019-04-14 13:00:00 18.5 3 Sudeste 10 Sudeste 0 949.8 -0.6 43
2019-04-14 12:00:00 17.6 5 Este 11 Sudeste 0 950.1 0 45
2019-04-14 11:00:00 14.5 2 Sudeste 8 Sudoeste 0 950.4 0.4 56
2019-04-14 10:00:00 11.7 4 Sudeste 7 Nordeste 0 950.4 0.9 62
2019-04-14 09:00:00 8 0 Calma 15 Sudoeste 0 950.1 0.2 81
2019-04-14 08:00:00 7.2 0 Calma 6 Este 0 950 0.3 82
2019-04-14 07:00:00 7.9 2 Nordeste 6 Nordeste 0 949.5 -0.4 80
2019-04-14 06:00:00 8 0 Calma 8 Nordeste 0 949.9 0 76
2019-04-14 05:00:00 8.2 0 Calma 3 Este 0 949.7 -0.7 81
2019-04-14 04:00:00 8.6 0 Calma 6 Nordeste 0 949.9 -0.7 73
2019-04-14 03:00:00 9.7 3 Nordeste 8 Nordeste 0 949.9 -0.9 69
2019-04-14 02:00:00 10.1 4 Norte 7 Norte 0 950.4 -0.5 67
2019-04-14 01:00:00 10.3 3 Nordeste 7 Nordeste 0 950.6 0.1 65
2019-04-14 00:00:00 11.8 0 Calma 7 Norte 0 950.8 0.7 59
2019-04-13 23:00:00 12.4 0 Calma 7 Sur 0 950.9 1.5 61
2019-04-13 22:00:00 13.5 4 Norte 12 Nordeste 0 950.5 1.5 47
2019-04-13 21:00:00 14.9 3 Nordeste 25 Nordeste 0 950.1 1.1 41
2019-04-13 20:00:00 17.7 13 Norte 27 Nordeste 0 949.4 0.2 36
2019-04-13 19:00:00 22.1 6 Oeste 17 Oeste 0 949 -0.8 25
2019-04-13 18:00:00 22.1 6 Sudeste 13 Sudeste 0 949 -1.4 22
2019-04-13 17:00:00 21 6 Nordeste 16 Este 0 949.2 -2 23
2019-04-13 16:00:00 21.2 6 Este 14 Este 0 949.8 -2.2 25
2019-04-13 15:00:00 20.2 5 Este 15 Sudeste 0 950.4 -2.3 25
2019-04-13 14:00:00 17.6 6 Sudeste 11 Este 0 951.2 -2.1 38
2019-04-13 13:00:00 13.7 3 Oeste 8 Sudoeste 0 952 -1.5 48
2019-04-13 12:00:00 10 3 Sur 8 Este 0 952.7 -1 62
2019-04-13 11:00:00 5.4 2 Sudoeste 9 Oeste 0 953.3 0 78
2019-04-13 10:00:00 1.3 2 Sur 7 Sudoeste 0 953.5 0.5 91
2019-04-13 09:00:00 -1.2 3 Nordeste 15 Este 0 953.7 0.9 92
2019-04-13 08:00:00 -2.7 3 Nordeste 6 Nordeste 0 953.3 0.6 92
2019-04-13 07:00:00 -2.4 3 Nordeste 5 Este 0 953 0.2 90
2019-04-13 06:00:00 -1.8 0 Calma 13 Este 0 952.8 -0.4 90
2019-04-13 05:00:00 -1.4 3 Nordeste 6 Nordeste 0 952.7 -0.8 89
2019-04-13 04:00:00 -0.7 4 Nordeste 7 Nordeste 0 952.8 -0.6 89
2019-04-13 03:00:00 -0.1 3 Nordeste 5 Nordeste 0 953.2 0.2 88
2019-04-13 02:00:00 0.9 0 Calma 8 Norte 0 953.5 0.5 86
2019-04-13 01:00:00 2.2 6 Nordeste 10 Nordeste 0 953.4 0.9 85
2019-04-13 00:00:00 3.7 4 Norte 9 Nordeste 0 953 1 81
2019-04-12 23:00:00 5.9 3 Nordeste 7 Norte 0 953 1.4 75
2019-04-12 22:00:00 8.3 6 Nordeste 14 Nordeste 0 952.5 0.9 66
2019-04-12 21:00:00 10.9 7 Nordeste 15 Nordeste 0 952 0.3 55
2019-04-12 20:00:00 13.9 7 Este 21 Nordeste 0 951.6 0 44
2019-04-12 19:00:00 15 9 Nordeste 21 Nordeste 0 951.6 -1 40
2019-04-12 18:00:00 15.6 8 Este 21 Este 0 951.7 -1.5 34
2019-04-12 17:00:00 15.6 6 Norte 17 Nordeste 0 951.6 -1.9 38
2019-04-12 16:00:00 14.6 8 Norte 21 Nordeste 0 952.6 -1.1 35
2019-04-12 15:00:00 14.4 7 Nordeste 21 Nordeste 0 953.2 -0.5 38
2019-04-12 14:00:00 13.9 4 Oeste 21 Noroeste 0 953.5 -0.6 46
2019-04-12 13:00:00 11.6 2 Sudeste 12 Sudeste 0 953.7 -0.4 57
2019-04-12 12:00:00 11.3 6 Sudeste 12 Sudeste 0 953.7 -0.5 61
2019-04-12 11:00:00 7.9 5 Sudeste 11 Sudeste 0 954.1 0.1 80
2019-04-12 10:00:00 3.8 3 Este 5 Este 0 954.1 0.4 92
2019-04-12 09:00:00 0.9 2 Sur 5 Nordeste 0 954.2 0.6 93
2019-04-12 08:00:00 0 0 Calma 6 Norte 0 954 0.4 92
2019-04-12 07:00:00 0.7 2 Norte 8 Nordeste 0 953.7 0.1 92
2019-04-12 06:00:00 1.4 0 Calma 8 Nordeste 0 953.6 -0.6 91
2019-04-12 05:00:00 2.5 0 Calma 9 Nordeste 0 953.6 -1 91
2019-04-12 04:00:00 3.2 4 Nordeste 8 Nordeste 0 953.6 -1 89
2019-04-12 03:00:00 4.9 3 Norte 6 Noroeste 0 954.2 -0.4 88
2019-04-12 02:00:00 6.6 0 Calma 9 Norte 0 954.6 -0.1 84
2019-04-12 01:00:00 6.7 2 Noroeste 8 Norte 0 954.6 0.2 85
2019-04-12 00:00:00 6.8 3 Norte 8 Norte 0 954.6 0.7 86
2019-04-11 23:00:00 6.9 3 Norte 12 Norte 0.2 954.7 1.2 86
2019-04-11 22:00:00 7.1 6 Norte 16 Nordeste 0.2 954.4 1.1 87
2019-04-11 21:00:00 7.8 3 Norte 9 Noroeste 0.4 953.9 0.7 86
2019-04-11 20:00:00 8.5 4 Norte 20 Oeste 0.2 953.5 0.5 81
2019-04-11 19:00:00 9.4 10 Oeste 31 Noroeste 0 953.3 0.2 71
2019-04-11 18:00:00 9.2 10 Noroeste 32 Oeste 0 953.2 0.1 70
2019-04-11 17:00:00 9.7 11 Noroeste 36 Oeste 0 953 -0.2 68
2019-04-11 16:00:00 10 10 Oeste 27 Sudoeste 0 953.1 -0.2 65
2019-04-11 15:00:00 10.7 11 Noroeste 27 Noroeste 0 953.1 -0.3 64
2019-04-11 14:00:00 10.2 11 Oeste 30 Oeste 0 953.2 0.2 62
2019-04-11 13:00:00 9.3 11 Noroeste 28 Oeste 0 953.3 0.6 69
2019-04-11 12:00:00 8.6 10 Noroeste 29 Oeste 0 953.4 0.9 73
2019-04-11 11:00:00 8.1 6 Noroeste 16 Oeste 0 953 0.7 74
2019-04-11 10:00:00 7.8 6 Oeste 12 Oeste 0 952.7 0.6 78
2019-04-11 09:00:00 5.7 3 Oeste 6 Sudeste 0 952.5 0.2 91
2019-04-11 08:00:00 4.2 2 Sur 12 Este 0.2 952.3 0 91
2019-04-11 07:00:00 4.3 3 Sur 7 Sudeste 0 952.1 -0.1 90
2019-04-11 06:00:00 4.8 0 Calma 6 Este 0 952.3 0.1 90
2019-04-11 05:00:00 4.7 2 Nordeste 15 Este 0 952.3 -0.2 88
2019-04-11 04:00:00 5.7 0 Calma 12 Norte 0.2 952.2 -0.2 85
2019-04-11 03:00:00 5.6 5 Noroeste 12 Noroeste 0 952.2 0.1 85
2019-04-11 02:00:00 5.5 2 Noroeste 13 Noroeste 0 952.5 0.5 87
2019-04-11 01:00:00 6.2 4 Oeste 12 Noroeste 0 952.4 0.9 85
2019-04-11 00:00:00 7 3 Oeste 11 Oeste 0 952.1 1.5 81
2019-04-10 23:00:00 6.9 2 Noroeste 11 Oeste 0 952 1.9 81
2019-04-10 22:00:00 7.9 6 Oeste 12 Oeste 0 951.5 2.2 77
2019-04-10 21:00:00 8.6 6 Noroeste 20 Noroeste 0 950.6 1.7 72
2019-04-10 20:00:00 9.3 9 Norte 26 Nordeste 0 950.1 1.6 67
2019-04-10 19:00:00 10.4 9 Norte 27 Norte 0 949.3 1 67
2019-04-10 18:00:00 9.7 11 Norte 26 Noroeste 0.4 948.9 1.1 72
2019-04-10 17:00:00 10.1 8 Nordeste 23 Norte 0.6 948.5 1 72
2019-04-10 16:00:00 9.8 6 Noroeste 29 Nordeste 0.8 948.3 0.5 70
2019-04-10 15:00:00 12.1 10 Norte 28 Norte 0 947.8 -0.1 58
2019-04-10 14:00:00 13.2 5 Sudoeste 13 Oeste 0 947.5 -0.3 47
2019-04-10 13:00:00 11.8 4 Oeste 10 Oeste 0.2 947.8 0.5 56
2019-04-10 12:00:00 9.7 6 Sudoeste 14 Sudeste 0 947.9 1.2 67
2019-04-10 11:00:00 6.5 4 Sudoeste 10 Oeste 0 947.8 1.9 80
2019-04-10 10:00:00 5.4 3 Sur 7 Sur 0 947.3 1.7 89
2019-04-10 09:00:00 4.8 4 Sur 9 Sur 0 946.7 1.5 91
2019-04-10 08:00:00 4.6 4 Sur 9 Sur 0 945.9 0.4 90
2019-04-10 07:00:00 4.9 2 Sur 7 Sur 0 945.6 0 90
2019-04-10 06:00:00 5.2 4 Sur 9 Sudeste 0 945.2 -0.4 89
2019-04-10 05:00:00 5.2 2 Sudoeste 6 Oeste 0 945.5 -0.1 90
2019-04-10 04:00:00 5 2 Sudoeste 11 Noroeste 0 945.6 0 91
2019-04-10 03:00:00 4.9 2 Oeste 13 Sudoeste 0 945.6 0.1 91
2019-04-10 02:00:00 4.9 2 Noroeste 7 Noroeste 0 945.6 0 90
2019-04-10 01:00:00 5.1 3 Norte 7 Nordeste 0 945.6 0.6 91
2019-04-10 00:00:00 5.3 0 Calma 9 Este 0 945.5 0.8 90
2019-04-09 23:00:00 5.3 2 Sur 7 Oeste 0 945.6 1.6 90
2019-04-09 22:00:00 5.5 5 Sudeste 10 Sudeste 0 945 0 88
2019-04-09 21:00:00 5.7 7 Sudeste 17 Este 0 944.7 0.8 86
2019-04-09 20:00:00 6 8 Sudeste 18 Este 1.2 944 0.9 85
2019-04-09 19:00:00 6.2 8 Noroeste 24 Noroeste 3.8 945 2.6 86
2019-04-09 18:00:00 7.8 4 Oeste 10 Oeste 5.8 943.9 1.4 86
2019-04-09 17:00:00 9 7 Oeste 20 Noroeste 2.6 943.1 0.3 78
2019-04-09 16:00:00 11.7 11 Noroeste 30 Oeste 0 942.4 -0.8 55
2019-04-09 15:00:00 12.4 16 Oeste 35 Sudoeste 0 942.5 -1.3 55
2019-04-09 14:00:00 11.3 10 Sudoeste 39 Sudoeste 0 942.8 -1 64
2019-04-09 13:00:00 11.6 13 Sudoeste 31 Oeste 0 943.2 -0.7 56
2019-04-09 12:00:00 10.5 12 Sudoeste 28 Sudoeste 0 943.8 -0.3 62
2019-04-09 11:00:00 10 11 Sudoeste 29 Sudoeste 0 943.8 -0.1 63
2019-04-09 10:00:00 8.8 10 Sudoeste 24 Sudoeste 0 943.9 -0.1 68
2019-04-09 09:00:00 6.8 7 Sudoeste 21 Sudoeste 0 944.1 0.3 77
2019-04-09 08:00:00 6.2 5 Sudoeste 19 Sudoeste 0 943.9 -0.2 78
2019-04-09 07:00:00 5.6 2 Sudoeste 14 Sudoeste 0 944 0 79
2019-04-09 06:00:00 3.9 4 Oeste 16 Sur 0 943.8 -0.5 85
2019-04-09 05:00:00 0.6 3 Sur 10 Sudoeste 0 944.1 -0.3 91
2019-04-09 04:00:00 0.9 2 Nordeste 8 Este 0 944 -0.4 91
2019-04-09 03:00:00 1.4 3 Sur 9 Sur 0 944.3 0 91
2019-04-09 02:00:00 2.2 2 Norte 7 Nordeste 0 944.4 -0.1 90
2019-04-09 01:00:00 3.1 3 Sur 8 Nordeste 0 944.4 -0.1 89
2019-04-09 00:00:00 4.2 2 Nordeste 5 Este 0 944.3 0.1 87
2019-04-08 23:00:00 5.9 2 Este 12 Nordeste 0 944.5 0.7 83
2019-04-08 22:00:00 7.6 3 Norte 20 Norte 0 944.5 0.8 78
2019-04-08 21:00:00 8.7 10 Norte 22 Norte 0 944.2 0.7 75
2019-04-08 20:00:00 9.8 10 Nordeste 30 Nordeste 0 943.8 0.1 73
2019-04-08 19:00:00 10.6 14 Nordeste 38 Nordeste 0 943.7 -0.3 71
2019-04-08 18:00:00 11.4 18 Nordeste 35 Nordeste 0 943.5 -0.7 71
2019-04-08 17:00:00 13.7 13 Nordeste 30 Nordeste 0 943.7 -0.9 60
2019-04-08 16:00:00 13.7 15 Nordeste 29 Nordeste 0 944 -0.7 60
2019-04-08 15:00:00 13.6 8 Nordeste 24 Este 0 944.2 -0.6 60
2019-04-08 14:00:00 11.9 10 Norte 21 Norte 0 944.6 0.1 67
2019-04-08 13:00:00 12.3 4 Sudeste 10 Sudeste 0 944.7 0.6 68
2019-04-08 12:00:00 11.5 0 Calma 11 Oeste 0.8 944.8 1.2 71
2019-04-08 11:00:00 9.8 5 Oeste 10 Oeste 0 944.5 1.5 76
2019-04-08 10:00:00 9.4 5 Oeste 12 Oeste 0 944.1 1.6 77
2019-04-08 09:00:00 8.5 3 Noroeste 10 Nordeste 0 943.6 1.1 83
2019-04-08 08:00:00 7.7 3 Norte 9 Nordeste 0 943 0.3 86
2019-04-08 07:00:00 7.8 4 Nordeste 9 Norte 0 942.5 -0.3 83
2019-04-08 06:00:00 7.7 2 Nordeste 10 Este 0.2 942.5 -0.5 85
2019-04-08 05:00:00 7.8 4 Nordeste 15 Norte 0 942.7 -0.6 81
2019-04-08 04:00:00 7.7 5 Oeste 13 Noroeste 0 942.8 -0.7 80
2019-04-08 03:00:00 7.6 4 Oeste 12 Oeste 0 943 -0.8 78
2019-04-08 02:00:00 7.9 4 Oeste 17 Oeste 0 943.3 -1 72
2019-04-08 01:00:00 8 8 Sudoeste 24 Oeste 0 943.5 -1.1 69
2019-04-08 00:00:00 7.8 8 Sudoeste 19 Oeste 0 943.8 0.1 71
2019-04-07 23:00:00 8 8 Sudoeste 19 Sudoeste 0 944.3 1.6 72
2019-04-07 22:00:00 8.5 10 Sudoeste 40 Sudoeste 0 944.6 2.1 67
2019-04-07 21:00:00 10.6 15 Sudoeste 38 Sudoeste 0 943.7 1.3 53
2019-04-07 20:00:00 12 11 Sudoeste 32 Sudoeste 0 942.7 0.2 37
2019-04-07 19:00:00 13 13 Sudoeste 33 Sudoeste 0 942.5 0 35
2019-04-07 18:00:00 13.5 11 Sudoeste 30 Sudoeste 0 942.4 -0.6 37
2019-04-07 17:00:00 13.6 12 Sudeste 24 Sur 0 942.5 -0.6 40
2019-04-07 16:00:00 13.8 12 Sudeste 23 Sur 0 942.5 -0.7 40
2019-04-07 15:00:00 13.5 11 Sur 25 Este 0 943 0.1 44
2019-04-07 14:00:00 11.7 6 Sur 18 Este 0 943.1 0.5 48
2019-04-07 13:00:00 10.2 5 Sudoeste 17 Sur 0 943.2 1.3 58
2019-04-07 12:00:00 8.7 6 Sudeste 17 Sudeste 0 942.9 1.8 64
2019-04-07 11:00:00 6.8 4 Sur 11 Sudoeste 0 942.6 2.4 73
2019-04-07 10:00:00 5.7 5 Sur 10 Sur 0 941.9 2.5 81
2019-04-07 09:00:00 4.6 3 Sur 10 Sudoeste 0.2 941.1 2.5 87
2019-04-07 08:00:00 4.1 5 Sudoeste 11 Oeste 0 940.2 2.1 89
2019-04-07 07:00:00 4 2 Sudoeste 9 Oeste 0 939.4 2.1 87
2019-04-07 06:00:00 4 5 Oeste 9 Oeste 0 938.6 1.2 87
2019-04-07 05:00:00 4 0 Calma 5 Oeste 0.8 938.1 1.3 89
2019-04-07 04:00:00 3.9 2 Sur 10 Sur 0.4 937.3 0.6 88
2019-04-07 03:00:00 4.2 3 Sudoeste 8 Sudoeste 0.2 937.4 1.2 89
2019-04-07 02:00:00 4 3 Sur 10 Sudoeste 0 936.8 0.8 87
2019-04-07 01:00:00 4.4 5 Sudeste 11 Sudoeste 0 936.7 1.3 86
2019-04-07 00:00:00 4.1 3 Sudeste 9 Oeste 0 936.2 1.9 87
2019-04-06 23:00:00 4.2 5 Sudoeste 17 Oeste 0.8 936 2.7 86
2019-04-06 22:00:00 5 9 Oeste 19 Oeste 0.8 935.4 2.9 85
2019-04-06 21:00:00 6 10 Oeste 21 Oeste 0.4 934.3 2.5 78
2019-04-06 20:00:00 7.9 6 Noroeste 23 Noroeste 0 933.3 1.9 61
2019-04-06 19:00:00 8.9 12 Oeste 25 Oeste 0 932.5 1.1 59
2019-04-06 18:00:00 9.1 8 Sudoeste 33 Sudoeste 0 931.8 -0.1 58
2019-04-06 17:00:00 11.2 15 Oeste 35 Sudoeste 0 931.4 -0.7 45
2019-04-06 16:00:00 12.6 14 Sudoeste 41 Sudoeste 0 931.4 -1.1 44
2019-04-06 15:00:00 10.9 17 Sudoeste 42 Sudoeste 0 931.9 -0.8 52
2019-04-06 14:00:00 10.1 20 Oeste 38 Sudoeste 0 932.1 -0.7 50
2019-04-06 13:00:00 10 16 Sudoeste 41 Sudoeste 0 932.5 -0.2 51
2019-04-06 12:00:00 8 12 Sudoeste 36 Sur 0 932.7 0 59
2019-04-06 11:00:00 6.7 12 Sudoeste 35 Sudoeste 0 932.8 0.4 65
2019-04-06 10:00:00 6 11 Sudoeste 30 Sudoeste 0 932.7 0.2 66
2019-04-06 09:00:00 5 8 Sudoeste 25 Sudoeste 0 932.7 0.1 69
2019-04-06 08:00:00 3.3 4 Sudoeste 25 Sudoeste 0 932.4 -0.4 75
2019-04-06 07:00:00 3.6 7 Sudoeste 19 Oeste 0 932.5 -0.1 73
2019-04-06 06:00:00 3 9 Sudoeste 20 Sudoeste 0 932.6 -0.4 79
2019-04-06 05:00:00 1.3 4 Sudoeste 7 Sudoeste 0 932.8 -0.3 83
2019-04-06 04:00:00 2 2 Sur 7 Sudoeste 0 932.6 -0.5 80
2019-04-06 03:00:00 3.9 3 Sur 5 Sur 0 933 0.3 76
2019-04-06 02:00:00 4.5 4 Nordeste 7 Oeste 0 933.1 0.9 73
2019-04-06 01:00:00 3.8 2 Sudoeste 6 Oeste 0 933.1 1.5 73
2019-04-06 00:00:00 4 5 Nordeste 8 Norte 0 932.7 1.8 71
2019-04-05 23:00:00 4.8 0 Calma 12 Sudoeste 0 932.2 1.9 66
2019-04-05 22:00:00 6.1 5 Sudoeste 18 Sur 0 931.6 1.1 61
2019-04-05 21:00:00 7 4 Sudeste 19 Sudeste 0 930.9 0.7 61
2019-04-05 20:00:00 10 6 Sudeste 15 Sudeste 0 930.3 0.3 44
2019-04-05 19:00:00 9.9 5 Sur 24 Sudoeste 0 930.5 0 43
2019-04-05 18:00:00 10 8 Sudoeste 32 Oeste 0 930.2 -0.3 47
2019-04-05 17:00:00 10.7 8 Sudoeste 28 Sudoeste 0 930 -0.8 40
2019-04-05 16:00:00 10.2 16 Sudoeste 28 Oeste 0 930.5 -0.6 43
2019-04-05 15:00:00 11.8 11 Sudoeste 40 Sur 0 930.5 -0.5 35
2019-04-05 14:00:00 11.2 12 Sudoeste 42 Sur 0 930.8 0.2 47
2019-04-05 13:00:00 8.6 9 Oeste 28 Sur 0 931.1 0.7 58
2019-04-05 12:00:00 8.6 10 Sur 23 Sur 0 931 0.7 63
2019-04-05 11:00:00 8.2 5 Sudeste 23 Este 0 930.6 0.2 67
2019-04-05 10:00:00 6.7 11 Este 21 Este 0 930.4 0.2 71
2019-04-05 09:00:00 6.4 7 Sudeste 16 Sur 0 930.3 0.4 70
2019-04-05 08:00:00 6.4 5 Sur 23 Sur 0 930.4 -0.1 69
2019-04-05 07:00:00 6.3 8 Sur 33 Sudeste 0 930.2 -0.9 68
2019-04-05 06:00:00 6 14 Sudeste 27 Este 0 929.9 -1.6 73
2019-04-05 05:00:00 6.4 10 Sudeste 29 Sudeste 0 930.5 -1.5 69
2019-04-05 04:00:00 6.5 10 Sudeste 33 Sur 0 931.1 -1.4 66
2019-04-05 03:00:00 6.9 8 Sudeste 34 Sur 0 931.5 -1.6 62
2019-04-05 02:00:00 6.9 6 Sur 32 Sur 0 932 -1.7 64
2019-04-05 01:00:00 6.7 8 Sudoeste 27 Sudoeste 0 932.5 -1.2 65
2019-04-05 00:00:00 6.4 9 Sudoeste 29 Sur 0 933.1 0.1 68
2019-04-04 23:00:00 6.4 12 Sudoeste 33 Oeste 0 933.7 1 67
2019-04-04 22:00:00 7.2 13 Sudoeste 37 Sudoeste 0 933.7 0.9 62
2019-04-04 21:00:00 9.2 17 Sudoeste 42 Sudoeste 0 933 0.1 39
2019-04-04 20:00:00 10.4 20 Sudoeste 48 Sudoeste 0 932.7 -0.4 33
2019-04-04 19:00:00 11 14 Sudoeste 41 Sudoeste 0 932.8 -0.7 30
2019-04-04 18:00:00 11.5 17 Sudoeste 42 Sur 0 932.9 -1.4 28
2019-04-04 17:00:00 12.7 16 Sudoeste 45 Sur 0 933.1 -2.2 28
2019-04-04 16:00:00 13 17 Sudoeste 46 Oeste 0 933.5 -2.8 26
2019-04-04 15:00:00 12.6 21 Sur 44 Sur 0 934.3 -2.6 24
2019-04-04 14:00:00 12 13 Sudoeste 36 Sudoeste 0 935.3 -1.8 29
2019-04-04 13:00:00 10.5 10 Sur 26 Sudoeste 0 936.3 -1.1 33
2019-04-04 12:00:00 8.2 8 Sudoeste 24 Oeste 0 936.9 -0.6 42
2019-04-04 11:00:00 6.5 8 Oeste 17 Oeste 0 937.1 0 55
2019-04-04 10:00:00 3.9 3 Nordeste 13 Sudeste 0 937.4 0.4 68
2019-04-04 09:00:00 0.6 5 Sudeste 11 Sudeste 0 937.5 0.3 82
2019-04-04 08:00:00 -0.3 2 Sur 8 Sur 0 937.1 -0.3 86
2019-04-04 07:00:00 -0.2 6 Sur 8 Sur 0 937 -0.7 85
2019-04-04 06:00:00 0.3 5 Oeste 12 Oeste 0 937.2 -0.9 82
2019-04-04 05:00:00 0.2 2 Este 14 Oeste 0 937.4 -1.3 83
2019-04-04 04:00:00 0.9 8 Oeste 21 Oeste 0 937.7 -1.7 80
2019-04-04 03:00:00 0.9 4 Oeste 17 Norte 0 938.1 -1.9 85
2019-04-04 02:00:00 1.6 11 Oeste 26 Noroeste 0.2 938.7 -1.4 82
2019-04-04 01:00:00 1 2 Norte 20 Noroeste 0.2 939.4 -0.3 88
2019-04-04 00:00:00 1.7 4 Norte 22 Oeste 0.2 940 0.4 86
2019-04-03 23:00:00 2.4 6 Noroeste 17 Noroeste 0 940.1 0.2 75
2019-04-03 22:00:00 2.5 5 Nordeste 11 Nordeste 0 939.7 -0.3 74
2019-04-03 21:00:00 2.9 3 Sur 22 Oeste 0 939.6 -0.9 72
2019-04-03 20:00:00 4.8 12 Oeste 27 Oeste 0 939.9 -0.3 61
2019-04-03 19:00:00 4.7 14 Oeste 37 Noroeste 0.2 940 0.1 75
2019-04-03 18:00:00 4 10 Noroeste 40 Noroeste 0 940.5 0.2 72
2019-04-03 17:00:00 6.7 8 Norte 56 Noroeste 0 940.2 -1.1 60
2019-04-03 16:00:00 6.7 21 Noroeste 61 Noroeste 0 939.9 -1 47
2019-04-03 15:00:00 7.5 18 Noroeste 47 Noroeste 0 940.3 -1.6 51
2019-04-03 14:00:00 7.6 20 Noroeste 53 Noroeste 0 941.3 -0.7 54
2019-04-03 13:00:00 8.3 16 Noroeste 40 Oeste 0 940.9 -1.2 51
2019-04-03 12:00:00 7.8 17 Noroeste 39 Oeste 0 941.9 -0.4 54
2019-04-03 11:00:00 6.1 12 Noroeste 36 Oeste 0 942 -0.4 61
2019-04-03 10:00:00 6.4 9 Oeste 21 Noroeste 0 942.1 -0.4 64
2019-04-03 09:00:00 5.6 8 Oeste 23 Noroeste 0 942.3 -0.7 69
2019-04-03 08:00:00 5.8 10 Noroeste 25 Noroeste 0 942.4 -1.2 68
2019-04-03 07:00:00 6 10 Noroeste 29 Oeste 0 942.5 -1.8 70
2019-04-03 06:00:00 6.2 12 Noroeste 31 Oeste 0 943 -2.1 69
2019-04-03 05:00:00 6.6 9 Noroeste 27 Noroeste 0 943.6 -2.2 68
2019-04-03 04:00:00 6.7 8 Oeste 23 Oeste 0 944.3 -2.2 67
2019-04-03 03:00:00 6.9 10 Noroeste 26 Noroeste 0 945.1 -1.7 66
2019-04-03 02:00:00 7.6 7 Oeste 25 Oeste 0 945.8 -1.3 70
2019-04-03 01:00:00 7.9 7 Oeste 15 Oeste 0 946.5 -0.4 69
2019-04-03 00:00:00 8.3 8 Oeste 16 Noroeste 0 946.8 0 70
2019-04-02 23:00:00 9 2 Sudoeste 9 Norte 0 947.1 0.2 70
2019-04-02 22:00:00 9.3 5 Noroeste 12 Noroeste 0 946.9 0 68
2019-04-02 21:00:00 9.8 4 Oeste 16 Nordeste 0 946.8 0.4 68
2019-04-02 20:00:00 10.1 7 Norte 24 Norte 0 946.9 0.3 67
2019-04-02 19:00:00 11.2 12 Norte 29 Norte 0 946.9 0.1 58
2019-04-02 18:00:00 13 16 Nordeste 37 Nordeste 0 946.4 -1.1 58
2019-04-02 17:00:00 14.1 19 Nordeste 32 Nordeste 0 946.6 -1.8 54
2019-04-02 16:00:00 16.8 7 Oeste 19 Oeste 0 946.8 -2.4 35
2019-04-02 15:00:00 16.4 4 Norte 16 Sur 0 947.5 -2.2 37
2019-04-02 14:00:00 15.6 4 Oeste 13 Sudoeste 0 948.4 -1.3 39
2019-04-02 13:00:00 14.2 5 Sudoeste 14 Noroeste 0 949.2 -0.5 43
2019-04-02 12:00:00 12.4 4 Noroeste 10 Oeste 0 949.7 0.3 56
2019-04-02 11:00:00 9.2 3 Este 8 Noroeste 0 949.7 0.6 71
2019-04-02 10:00:00 4.9 4 Norte 13 Nordeste 0 949.7 0.7 83
2019-04-02 09:00:00 1.1 4 Nordeste 8 Norte 0 949.4 0.7 91
2019-04-02 08:00:00 0.3 0 Calma 5 Norte 0 949.1 0.4 90
2019-04-02 07:00:00 1.1 2 Norte 7 Nordeste 0 949 0.1 90
2019-04-02 06:00:00 1.3 2 Este 7 Sudeste 0 948.7 -0.3 89
2019-04-02 05:00:00 2 3 Nordeste 6 Norte 0 948.7 -0.4 88
2019-04-02 04:00:00 3.1 0 Calma 9 Nordeste 0 948.9 -0.3 88
2019-04-02 03:00:00 4 2 Sur 8 Norte 0 949 -0.1 87
2019-04-02 02:00:00 4.5 4 Nordeste 7 Nordeste 0 949.1 0.3 84
2019-04-02 01:00:00 6.1 0 Calma 5 Nordeste 0 949.2 0.8 81
2019-04-02 00:00:00 7.7 0 Calma 6 Oeste 0 949.1 1.5 79
2019-04-01 23:00:00 8.8 0 Calma 8 Oeste 0 948.8 1.9 72
2019-04-01 22:00:00 11 3 Oeste 12 Norte 0 948.4 2 63
2019-04-01 21:00:00 12.4 6 Noroeste 17 Nordeste 0 947.6 1.2 60
2019-04-01 20:00:00 13.5 9 Nordeste 18 Nordeste 0 946.9 0.3 56
2019-04-01 19:00:00 14.4 2 Noroeste 14 Sudeste 0 946.4 -0.2 49
2019-04-01 18:00:00 14.8 7 Sudeste 14 Este 0 946.4 -0.7 50
2019-04-01 17:00:00 14.4 4 Nordeste 10 Noroeste 0 946.6 -0.8 48
2019-04-01 16:00:00 14.6 4 Noroeste 21 Oeste 0 946.6 -1 46
2019-04-01 15:00:00 14.4 4 Oeste 20 Sudeste 0 947.1 -0.9 50
2019-04-01 14:00:00 15 8 Sur 21 Sudeste 0 947.4 -0.5 48
2019-04-01 13:00:00 15.2 7 Sudeste 16 Sur 0 947.6 0 49
2019-04-01 12:00:00 12.3 4 Sudoeste 17 Sudeste 0 948 0.5 54
2019-04-01 11:00:00 12.2 8 Sudeste 19 Sudeste 0 947.9 0.8 57
2019-04-01 10:00:00 7.9 2 Sur 6 Sudeste 0 947.6 0.7 78
2019-04-01 09:00:00 5.6 4 Sur 6 Sur 0 947.5 0.6 85
2019-04-01 08:00:00 5.3 0 Calma 3 Oeste 0 947.1 -0.1 83
2019-04-01 07:00:00 5.9 2 Nordeste 5 Sudoeste 0 946.9 -0.7 82
2019-04-01 06:00:00 6.5 3 Oeste 5 Oeste 0 946.9 -0.8 80
2019-04-01 05:00:00 7 3 Norte 8 Norte 0 947.2 -0.5 77
2019-04-01 04:00:00 7.7 4 Nordeste 10 Sur 0 947.6 0 70
2019-04-01 03:00:00 9 5 Sudeste 17 Sudeste 0 947.7 0.3 63
2019-04-01 02:00:00 7.5 3 Este 9 Sudeste 0 947.7 0.4 65
2019-04-01 01:00:00 7.2 0 Calma 6 Oeste 0 947.6 0.7 66
2019-04-01 00:00:00 7.8 4 Nordeste 6 Nordeste 0 947.4 1.2 62
2019-03-31 23:00:00 9.3 2 Sur 9 Nordeste 0 947.3 1.6 60
2019-03-31 22:00:00 11.3 3 Oeste 17 Este 0 946.9 1.3 52
2019-03-31 21:00:00 13.3 10 Nordeste 21 Nordeste 0 946.2 0.6 43
2019-03-31 20:00:00 15.5 13 Nordeste 35 Nordeste 0 945.7 -0.1 35
2019-03-31 19:00:00 17.3 16 Nordeste 31 Nordeste 0 945.6 -0.5 34
2019-03-31 18:00:00 17.1 12 Nordeste 30 Este 0 945.6 -1.5 29
2019-03-31 17:00:00 19.2 13 Este 26 Nordeste 0 945.8 -2.3 27
2019-03-31 16:00:00 19.9 10 Este 30 Este 0 946.1 -2.8 25
2019-03-31 15:00:00 17.9 14 Este 33 Sur 0 947.1 -2.1 28
2019-03-31 14:00:00 17.4 5 Sudoeste 15 Sur 0 948.1 -1.3 34
2019-03-31 13:00:00 15.5 4 Este 13 Sudeste 0 948.9 -0.6 38
2019-03-31 12:00:00 12.6 3 Sudeste 9 Este 0 949.2 -0.4 43
2019-03-31 11:00:00 8.4 2 Este 6 Este 0 949.4 0.1 58
2019-03-31 10:00:00 5 3 Sudeste 6 Sudeste 0 949.5 0.1 72
2019-03-31 09:00:00 0 2 Este 4 Este 0 949.6 0.2 85
2019-03-31 08:00:00 -0.7 2 Norte 4 Nordeste 0 949.3 -0.7 85
2019-03-31 07:00:00 -0.2 0 Calma 5 Norte 0 949.4 -1 82
2019-03-31 06:00:00 1 4 Norte 7 Norte 0 949.4 -1 82
2019-03-31 05:00:00 1.4 0 Calma 6 Este 0 950 -0.7 80
2019-03-31 03:00:00 3.2 3 Norte 6 Nordeste 0 950.4 -0.7 76
2019-03-31 01:00:00 4.2 2 Nordeste 5 Nordeste 0 950.7 -0.4 74
2019-03-31 00:00:00 5.4 0 Calma 5 Nordeste 0 951 0.2 71
2019-03-30 23:00:00 6.6 0 Calma 4 Este 0 951.1 1.3 67
2019-03-30 22:00:00 8.4 2 Sudoeste 5 Sudoeste 0 951.1 1.8 62
2019-03-30 21:00:00 11.1 3 Este 5 Este 0 950.8 1.7 52
2019-03-30 20:00:00 13.9 3 Sur 12 Sudeste 0 949.8 0.6 38
2019-03-30 19:00:00 17.2 5 Sudeste 15 Sudeste 0 949.3 -0.3 31
2019-03-30 18:00:00 19.8 11 Sur 23 Este 0 949.1 -1.2 25
2019-03-30 17:00:00 20.3 11 Sudeste 23 Sudeste 0 949.2 -1.8 22
2019-03-30 16:00:00 20.4 9 Sudeste 27 Sudeste 0 949.6 -2.4 25
2019-03-30 15:00:00 19.9 11 Sudeste 23 Sudeste 0 950.3 -2.5 26
2019-03-30 14:00:00 18.8 10 Sudeste 24 Este 0 951 -2.6 29
2019-03-30 13:00:00 17.1 5 Sudeste 17 Sudeste 0 952 -2 35
2019-03-30 12:00:00 15 7 Este 18 Sudeste 0 952.8 -1.4 40
2019-03-30 11:00:00 13.2 6 Sur 18 Sur 0 953.6 -0.4 45
2019-03-30 10:00:00 10.7 7 Sur 22 Sudoeste 0 954 0.2 52
2019-03-30 09:00:00 7 3 Sur 7 Sudeste 0 954.2 0.5 64
2019-03-30 08:00:00 1.7 2 Nordeste 7 Nordeste 0 954 0.4 79
2019-03-30 07:00:00 1 4 Nordeste 8 Norte 0 953.8 0.2 77
2019-03-30 06:00:00 3.4 7 Nordeste 21 Sudeste 0 953.7 0 71
2019-03-30 05:00:00 4.7 9 Sur 17 Sur 0 953.6 -0.1 72
2019-03-30 04:00:00 2.3 2 Noroeste 7 Nordeste 0 953.6 0 77
2019-03-30 03:00:00 2.8 2 Nordeste 10 Nordeste 0 953.7 0.2 72
2019-03-30 02:00:00 3.6 3 Norte 9 Nordeste 0 953.7 0.2 70
2019-03-30 01:00:00 4.6 5 Nordeste 10 Este 0 953.6 0.3 66
2019-03-30 00:00:00 6.7 4 Sur 8 Sudeste 0 953.5 0.4 60
2019-03-29 23:00:00 9.4 2 Sudeste 9 Sudeste 0 953.5 0.9 48
2019-03-29 22:00:00 11.5 3 Sudeste 18 Sudeste 0 953.3 1.2 42
2019-03-29 21:00:00 13.2 11 Sudeste 22 Sudeste 0 953.1 1.3 36
2019-03-29 20:00:00 14.3 8 Sudeste 20 Sudeste 0 952.6 0.7 37
2019-03-29 19:00:00 17.5 12 Sudeste 26 Sudeste 0 952.1 -0.3 30
2019-03-29 18:00:00 19.5 14 Sudeste 30 Sudeste 0 951.8 -1.4 25
2019-03-29 17:00:00 20.5 15 Sudeste 30 Sudoeste 0 951.9 -2.1 23
2019-03-29 16:00:00 20.6 13 Sudeste 31 Sur 0 952.4 -2.5 23
2019-03-29 15:00:00 20.7 14 Sudeste 29 Sudeste 0 953.2 -2.7 25
2019-03-29 14:00:00 18.7 14 Sudeste 38 Sudeste 0 954 -2.9 28
2019-03-29 13:00:00 16.7 13 Sudeste 27 Sudeste 0 954.9 -2.6 32
2019-03-29 12:00:00 13.9 6 Sudeste 18 Sudeste 0 955.9 -1.9 43
2019-03-29 11:00:00 9.8 3 Este 8 Este 0 956.9 -1.1 54
2019-03-29 10:00:00 6 3 Sudoeste 7 Oeste 0 957.5 -0.4 63
2019-03-29 09:00:00 2.4 2 Nordeste 5 Norte 0 957.8 0.1 76
2019-03-29 08:00:00 -1.7 0 Calma 5 Norte 0 958 0.2 87
2019-03-29 07:00:00 -2.8 0 Calma 6 Nordeste 0 957.9 -0.2 87
2019-03-29 06:00:00 -2.4 0 Calma 5 Nordeste 0 957.7 -0.9 86
2019-03-29 05:00:00 -1.8 0 Calma 15 Sur 0 957.8 -1.3 85
2019-03-29 04:00:00 -1 0 Calma 13 Norte 0 958.1 -1.2 84
2019-03-29 03:00:00 -0.1 3 Nordeste 18 Este 0 958.6 -0.9 81
2019-03-29 02:00:00 0.6 3 Noroeste 12 Norte 0 959.1 -0.6 82
2019-03-29 01:00:00 1.9 4 Norte 12 Este 0 959.3 -0.6 77
2019-03-29 00:00:00 2.6 3 Noroeste 8 Nordeste 0 959.5 -0.4 75
2019-03-28 23:00:00 4 4 Norte 14 Sur 0 959.7 0.2 72
2019-03-28 22:00:00 4.8 5 Este 8 Este 0 959.9 1 67
2019-03-28 21:00:00 7.6 3 Oeste 12 Nordeste 0 959.9 1.2 57
2019-03-28 20:00:00 9.3 4 Nordeste 15 Nordeste 0 959.5 0.7 55
2019-03-28 19:00:00 12.1 7 Norte 24 Norte 0 958.9 -0.3 47
2019-03-28 18:00:00 14.4 9 Norte 30 Nordeste 0 958.7 -0.9 39
2019-03-28 17:00:00 15.4 10 Norte 28 Nordeste 0 958.8 -1.5 35
2019-03-28 16:00:00 16 12 Norte 28 Norte 0 959.2 -1.8 36
2019-03-28 15:00:00 15.5 10 Norte 25 Norte 0 959.6 -1.9 37
2019-03-28 14:00:00 15.2 10 Nordeste 27 Este 0 960.3 -1.7 40
2019-03-28 13:00:00 14.5 12 Nordeste 25 Nordeste 0 961 -1.4 39
2019-03-28 12:00:00 13 10 Nordeste 22 Este 0 961.5 -1.3 43
2019-03-28 11:00:00 10.4 4 Sudoeste 13 Oeste 0 962 -0.5 57
2019-03-28 10:00:00 6.5 4 Oeste 12 Sudeste 0 962.4 0.2 69
2019-03-28 09:00:00 2.7 0 Calma 5 Sur 0 962.8 0.8 79
2019-03-28 08:00:00 -0.9 2 Nordeste 5 Norte 0 962.5 0.5 88
2019-03-28 07:00:00 -1 2 Norte 6 Noroeste 0 962.2 0.2 88
2019-03-28 06:00:00 -0.8 2 Norte 9 Nordeste 0 962 0.1 88
2019-03-28 05:00:00 -2 2 Nordeste 14 Este 0 962 -0.2 88
2019-03-28 04:00:00 -1.3 0 Calma 9 Nordeste 0 962 -0.6 87
2019-03-28 03:00:00 -0.9 4 Norte 8 Norte 0 961.9 -0.6 85
2019-03-28 02:00:00 -0.6 0 Calma 4 Norte 0 962.2 0 85
2019-03-28 01:00:00 0.2 0 Calma 5 Sudeste 0 962.6 0.6 82
2019-03-28 00:00:00 1.1 4 Sur 6 Sur 0 962.5 1 80
2019-03-27 23:00:00 2.2 3 Norte 6 Nordeste 0 962.2 1.7 74
2019-03-27 22:00:00 4.6 2 Este 13 Sudeste 0 962 2.2 68
2019-03-27 21:00:00 6.3 8 Este 33 Este 0 961.5 2.2 51
2019-03-27 20:00:00 7.8 20 Nordeste 41 Nordeste 0 960.5 1.3 47
2019-03-27 19:00:00 9.8 19 Nordeste 36 Norte 0 959.8 0.6 42
2019-03-27 18:00:00 12.5 21 Nordeste 37 Nordeste 0 959.3 -0.2 34
2019-03-27 17:00:00 14.4 12 Norte 34 Nordeste 0 959.2 -0.5 29
2019-03-27 16:00:00 15.2 15 Nordeste 33 Nordeste 0 959.2 -0.9 26
2019-03-27 15:00:00 15.1 13 Norte 30 Norte 0 959.5 -0.6 26
2019-03-27 14:00:00 15 14 Norte 29 Norte 0 959.7 -0.5 24
2019-03-27 13:00:00 14.5 13 Nordeste 29 Nordeste 0 960.1 0.1 22
2019-03-27 12:00:00 13.3 15 Nordeste 28 Nordeste 0 960.1 0.1 27
2019-03-27 11:00:00 11.7 6 Norte 13 Oeste 0 960.2 0.2 35
2019-03-27 10:00:00 8.3 3 Noroeste 8 Norte 0 960 0.5 55
2019-03-27 09:00:00 4.3 4 Nordeste 6 Nordeste 0 960 0.7 74
2019-03-27 08:00:00 -0.3 5 Norte 14 Este 0 960 1.1 89
2019-03-27 07:00:00 -1.6 3 Norte 5 Sudoeste 0 959.5 0.8 89
2019-03-27 06:00:00 -1.3 2 Sudoeste 6 Sudoeste 0 959.3 0.3 89
2019-03-27 05:00:00 -0.8 2 Noroeste 10 Este 0 958.9 -0.6 88
2019-03-27 04:00:00 -0.2 2 Sudoeste 12 Nordeste 0 958.7 -1.1 87
2019-03-27 03:00:00 -0.2 2 Norte 5 Nordeste 0 959 -0.9 85
2019-03-27 02:00:00 0.7 0 Calma 12 Sudeste 0 959.5 -0.5 81
2019-03-27 01:00:00 1.4 3 Este 16 Sur 0 959.8 0 79
2019-03-27 00:00:00 2.9 2 Sur 12 Sudeste 0 959.9 0.5 74